Terminal Aerodrome Forecast
Issued by NWS Tampa Bay Area, FL

Home | Current Version | Previous Version | Text Only | Print | Product List | Glossary On
Versions: 1 2 3 4 5 6 7 8 9 10 11 12 13 14 15 16 17 18 19 20 21 22 23 24 25 26 27 28 29 30 31 32 33 34 35
000
FTUS42 KTBW 290058 AAA
TAFTPA
TAF AMD
KTPA 290058Z 2901/2924 25011KT P6SM VCTS FEW025CB SCT035 BKN080
      TEMPO 2901/2903 VRB10KT 4SM TSRA SCT015 BKN025CB
     FM290300 VRB06KT P6SM VCSH FEW010 BKN050 BKN200
     FM291100 25008KT P6SM SHRA FEW025 BKN040 BKN200
     FM291600 26011KT P6SM VCTS SCT025CB BKN050=

USA.gov is the U.S. government's official web portal to all federal, state and local government web resources and services.